Airfield :
LOGIN :

Register | Disclaimer

   EN    FR    IT 

 










Legend :    VFR   Marginal VFR   IFR   Intensive IFR   Very Intensive IFR
Visi :
Ceiling :
>= 8 km
>= 3000ft
5 to 8 km
1000 to 3000 ft
1500m to 5 km
500 to 1000 ft
800 to 1500m
200 to 500 ft
< 800m
< 200 ft
Symbols :   Thunderstorms  Fog  Heavy snow  Heavy precipitations  Wind > 20 kt
SIGMETs :     Misc.  Thunderstorms  Icing  Turbulence  Mountain Waves  Volcanic Ashes







- Airport Elevation : 392 ft
- IATA code : CDG
- Download approach charts


LFPG - Paris-Aeroport Charles De Gaulle

CURRENT METAR :
  • 110000Z 26004KT 9999 BKN046 06/05 Q1027 NOSIG

EXPIRED METARs :
  • 102330Z 25005KT 9999 FEW033 BKN043 06/05 Q1027 NOSIG
  • 102300Z 27005KT 9999 SCT033 BKN050 06/05 Q1027 NOSIG
  • 102230Z 27006KT 9999 SCT028 BKN050 06/04 Q1027 NOSIG
  • 102200Z 27004KT 9999 FEW024 BKN044 06/04 Q1027 NOSIG
  • 102130Z 27005KT 9999 FEW024 BKN046 05/04 Q1027 NOSIG

TAF TAF LFPG
Valid from the 11 at 00:00 until the 12 at 06:00 UTC


102300Z 1100/1206 28004KT 9999 BKN045 TX06/1115Z TN01/1206Z
PROB40
TEMPO 1103/1110 4000 BR
PROB30
TEMPO 1105/1110 1200 BCFG
PROB30
TEMPO 1109/1111 BKN002
TEMPO 1118/1124 BKN014
PROB40
TEMPO 1204/1206 3500 BR
PROB30
TEMPO 1204/1206 0900 FG BKN001
ATIS : +33 1 48 62 10 92
No reported NOTAMs for that airfield.



MET'MAP, your aeronautical weather chart ! - Copyright ORBIFLY December 2007 - Disclaimer

ORBIFLY MET'MAP TEAM :

Programming & Development : Alexandra Zaïnal
Concept & Development : Baudouin d'Aumeries
Co-Development & Prog : Marc-Olivier Méhu
Technical & hardware support : Manuel Goepfert

Contact : metmap@orbifly.com




SOURCES & CREDITS :

   NOAA